sensor_id;sensor_type;location;lat;lon;timestamp;P1;durP1;ratioP1;P2;durP2;ratioP2
57615;SDS011;43816;52.054;-9.494;2022-11-15T00:00:04;4.03;;;2.00;;
57615;SDS011;43816;52.054;-9.494;2022-11-15T00:00:15;4.50;;;2.08;;
57615;SDS011;43816;52.054;-9.494;2022-11-15T00:00:25;4.30;;;1.95;;
57615;SDS011;43816;52.054;-9.494;2022-11-15T00:00:36;3.50;;;1.70;;
57615;SDS011;43816;52.054;-9.494;2022-11-15T00:00:46;3.08;;;1.55;;
57615;SDS011;43816;52.054;-9.494;2022-11-15T00:00:57;2.83;;;1.60;;
57615;SDS011;43816;52.054;-9.494;2022-11-15T00:01:17;2.88;;;1.70;;
57615;SDS011;43816;52.054;-9.494;2022-11-15T00:01:28;2.97;;;1.75;;
57615;SDS011;43816;52.054;-9.494;2022-11-15T00:01:38;3.57;;;1.80;;
57615;SDS011;43816;52.054;-9.494;2022-11-15T00:01:49;4.00;;;1.90;;
57615;SDS011;43816;52.054;-9.494;2022-11-15T00:01:59;4.07;;;2.00;;
57615;SDS011;43816;52.054;-9.494;2022-11-15T00:02:09;3.43;;;1.77;;
57615;SDS011;43816;52.054;-9.494;2022-11-15T00:02:19;3.27;;;1.60;;
57615;SDS011;43816;52.054;-9.494;2022-11-15T00:02:30;3.53;;;1.50;;
57615;SDS011;43816;52.054;-9.494;2022-11-15T00:02:40;3.85;;;1.60;;
57615;SDS011;43816;52.054;-9.494;2022-11-15T00:02:52;3.57;;;1.60;;
57615;SDS011;43816;52.054;-9.494;2022-11-15T00:03:02;3.10;;;1.58;;
57615;SDS011;43816;52.054;-9.494;2022-11-15T00:03:13;2.90;;;1.57;;
57615;SDS011;43816;52.054;-9.494;2022-11-15T00:03:25;3.28;;;1.80;;
57615;SDS011;43816;52.054;-9.494;2022-11-15T00:03:36;3.72;;;2.00;;
57615;SDS011;43816;52.054;-9.494;2022-11-15T00:03:48;3.72;;;2.00;;
57615;SDS011;43816;52.054;-9.494;2022-11-15T00:04:00;2.90;;;1.70;;
57615;SDS011;43816;52.054;-9.494;2022-11-15T00:04:11;2.70;;;1.67;;
57615;SDS011;43816;52.054;-9.494;2022-11-15T00:04:21;2.77;;;1.53;;
57615;SDS011;43816;52.054;-9.494;2022-11-15T00:04:31;3.13;;;1.50;;
57615;SDS011;43816;52.054;-9.494;2022-11-15T00:04:42;3.37;;;1.50;;
57615;SDS011;43816;52.054;-9.494;2022-11-15T00:04:52;3.75;;;1.63;;
57615;SDS011;43816;52.054;-9.494;2022-11-15T00:05:03;3.53;;;1.60;;
57615;SDS011;43816;52.054;-9.494;2022-11-15T00:05:13;3.80;;;1.77;;
57615;SDS011;43816;52.054;-9.494;2022-11-15T00:05:23;3.28;;;1.70;;
57615;SDS011;43816;52.054;-9.494;2022-11-15T00:05:34;3.53;;;1.73;;
57615;SDS011;43816;52.054;-9.494;2022-11-15T00:05:45;3.25;;;1.77;;
57615;SDS011;43816;52.054;-9.494;2022-11-15T00:06:00;3.20;;;1.75;;
57615;SDS011;43816;52.054;-9.494;2022-11-15T00:06:12;3.33;;;1.70;;
57615;SDS011;43816;52.054;-9.494;2022-11-15T00:06:22;3.65;;;1.60;;
57615;SDS011;43816;52.054;-9.494;2022-11-15T00:06:32;3.87;;;1.80;;
57615;SDS011;43816;52.054;-9.494;2022-11-15T00:06:43;4.47;;;1.93;;
57615;SDS011;43816;52.054;-9.494;2022-11-15T00:06:53;3.93;;;1.90;;
57615;SDS011;43816;52.054;-9.494;2022-11-15T00:07:03;3.47;;;1.67;;
57615;SDS011;43816;52.054;-9.494;2022-11-15T00:07:14;2.87;;;1.50;;
57615;SDS011;43816;52.054;-9.494;2022-11-15T00:07:24;3.17;;;1.63;;
57615;SDS011;43816;52.054;-9.494;2022-11-15T00:07:34;3.25;;;1.52;;
57615;SDS011;43816;52.054;-9.494;2022-11-15T00:07:44;3.30;;;1.60;;
57615;SDS011;43816;52.054;-9.494;2022-11-15T00:07:56;3.47;;;1.60;;
57615;SDS011;43816;52.054;-9.494;2022-11-15T00:08:06;3.63;;;1.70;;
57615;SDS011;43816;52.054;-9.494;2022-11-15T00:08:17;3.57;;;1.73;;
57615;SDS011;43816;52.054;-9.494;2022-11-15T00:08:31;3.13;;;1.60;;
57615;SDS011;43816;52.054;-9.494;2022-11-15T00:08:42;2.30;;;1.42;;
57615;SDS011;43816;52.054;-9.494;2022-11-15T00:08:52;2.57;;;1.50;;
57615;SDS011;43816;52.054;-9.494;2022-11-15T00:09:02;2.80;;;1.53;;
57615;SDS011;43816;52.054;-9.494;2022-11-15T00:09:13;3.08;;;1.60;;
57615;SDS011;43816;52.054;-9.494;2022-11-15T00:09:23;3.07;;;1.60;;
57615;SDS011;43816;52.054;-9.494;2022-11-15T00:09:33;3.33;;;1.60;;
57615;SDS011;43816;52.054;-9.494;2022-11-15T00:09:44;3.63;;;1.60;;
57615;SDS011;43816;52.054;-9.494;2022-11-15T00:09:54;3.27;;;1.50;;
57615;SDS011;43816;52.054;-9.494;2022-11-15T00:10:04;3.23;;;1.57;;
57615;SDS011;43816;52.054;-9.494;2022-11-15T00:10:15;3.47;;;1.80;;
57615;SDS011;43816;52.054;-9.494;2022-11-15T00:10:25;3.67;;;1.88;;
57615;SDS011;43816;52.054;-9.494;2022-11-15T00:10:36;3.93;;;1.80;;
57615;SDS011;43816;52.054;-9.494;2022-11-15T00:10:56;3.88;;;1.70;;
57615;SDS011;43816;52.054;-9.494;2022-11-15T00:11:07;3.75;;;1.90;;
57615;SDS011;43816;52.054;-9.494;2022-11-15T00:11:20;3.92;;;1.80;;
57615;SDS011;43816;52.054;-9.494;2022-11-15T00:11:30;4.32;;;1.83;;
57615;SDS011;43816;52.054;-9.494;2022-11-15T00:11:41;4.20;;;1.70;;
57615;SDS011;43816;52.054;-9.494;2022-11-15T00:11:51;4.13;;;1.83;;
57615;SDS011;43816;52.054;-9.494;2022-11-15T00:12:01;4.13;;;1.75;;
57615;SDS011;43816;52.054;-9.494;2022-11-15T00:12:12;4.13;;;1.80;;
57615;SDS011;43816;52.054;-9.494;2022-11-15T00:12:22;3.63;;;1.73;;
57615;SDS011;43816;52.054;-9.494;2022-11-15T00:12:32;3.75;;;1.92;;
57615;SDS011;43816;52.054;-9.494;2022-11-15T00:12:43;3.67;;;1.87;;
57615;SDS011;43816;52.054;-9.494;2022-11-15T00:12:53;4.03;;;1.70;;
57615;SDS011;43816;52.054;-9.494;2022-11-15T00:13:07;3.33;;;1.55;;
57615;SDS011;43816;52.054;-9.494;2022-11-15T00:13:21;3.20;;;1.58;;
57615;SDS011;43816;52.054;-9.494;2022-11-15T00:13:31;3.17;;;1.60;;
57615;SDS011;43816;52.054;-9.494;2022-11-15T00:13:42;3.23;;;1.77;;
57615;SDS011;43816;52.054;-9.494;2022-11-15T00:13:55;3.15;;;1.80;;
57615;SDS011;43816;52.054;-9.494;2022-11-15T00:14:06;3.40;;;1.70;;
57615;SDS011;43816;52.054;-9.494;2022-11-15T00:14:17;3.30;;;1.63;;
57615;SDS011;43816;52.054;-9.494;2022-11-15T00:14:27;3.00;;;1.67;;
57615;SDS011;43816;52.054;-9.494;2022-11-15T00:14:37;2.93;;;1.60;;
57615;SDS011;43816;52.054;-9.494;2022-11-15T00:14:48;3.03;;;1.60;;
57615;SDS011;43816;52.054;-9.494;2022-11-15T00:14:58;3.45;;;1.58;;
57615;SDS011;43816;52.054;-9.494;2022-11-15T00:15:08;3.27;;;1.57;;
57615;SDS011;43816;52.054;-9.494;2022-11-15T00:15:18;3.50;;;1.60;;
57615;SDS011;43816;52.054;-9.494;2022-11-15T00:15:29;3.33;;;1.63;;
57615;SDS011;43816;52.054;-9.494;2022-11-15T00:15:40;3.77;;;1.90;;
57615;SDS011;43816;52.054;-9.494;2022-11-15T00:15:51;4.65;;;2.25;;
57615;SDS011;43816;52.054;-9.494;2022-11-15T00:16:02;4.75;;;2.17;;
57615;SDS011;43816;52.054;-9.494;2022-11-15T00:16:12;4.38;;;1.95;;
57615;SDS011;43816;52.054;-9.494;2022-11-15T00:16:23;3.63;;;1.80;;
57615;SDS011;43816;52.054;-9.494;2022-11-15T00:16:34;3.97;;;1.70;;
57615;SDS011;43816;52.054;-9.494;2022-11-15T00:16:44;3.57;;;1.73;;
57615;SDS011;43816;52.054;-9.494;2022-11-15T00:16:58;3.65;;;1.70;;
57615;SDS011;43816;52.054;-9.494;2022-11-15T00:17:08;4.10;;;1.75;;
57615;SDS011;43816;52.054;-9.494;2022-11-15T00:17:18;3.92;;;1.70;;
57615;SDS011;43816;52.054;-9.494;2022-11-15T00:17:29;3.30;;;1.60;;
57615;SDS011;43816;52.054;-9.494;2022-11-15T00:17:39;3.20;;;1.63;;
57615;SDS011;43816;52.054;-9.494;2022-11-15T00:17:49;3.55;;;1.70;;
57615;SDS011;43816;52.054;-9.494;2022-11-15T00:18:00;4.03;;;1.63;;
57615;SDS011;43816;52.054;-9.494;2022-11-15T00:18:13;3.87;;;1.60;;
57615;SDS011;43816;52.054;-9.494;2022-11-15T00:18:24;3.67;;;1.70;;
57615;SDS011;43816;52.054;-9.494;2022-11-15T00:18:35;3.77;;;1.83;;
57615;SDS011;43816;52.054;-9.494;2022-11-15T00:18:45;3.53;;;1.70;;
57615;SDS011;43816;52.054;-9.494;2022-11-15T00:18:55;3.80;;;1.80;;
57615;SDS011;43816;52.054;-9.494;2022-11-15T00:19:06;4.00;;;1.90;;
57615;SDS011;43816;52.054;-9.494;2022-11-15T00:19:16;4.60;;;1.95;;
57615;SDS011;43816;52.054;-9.494;2022-11-15T00:19:26;4.73;;;1.87;;
57615;SDS011;43816;52.054;-9.494;2022-11-15T00:19:36;4.63;;;1.80;;
57615;SDS011;43816;52.054;-9.494;2022-11-15T00:19:47;3.85;;;1.75;;
57615;SDS011;43816;52.054;-9.494;2022-11-15T00:19:57;3.43;;;1.70;;
57615;SDS011;43816;52.054;-9.494;2022-11-15T00:20:07;3.20;;;1.60;;
57615;SDS011;43816;52.054;-9.494;2022-11-15T00:20:18;3.47;;;1.50;;
57615;SDS011;43816;52.054;-9.494;2022-11-15T00:20:28;3.43;;;1.53;;
57615;SDS011;43816;52.054;-9.494;2022-11-15T00:20:39;3.45;;;1.50;;
57615;SDS011;43816;52.054;-9.494;2022-11-15T00:20:49;3.30;;;1.43;;
57615;SDS011;43816;52.054;-9.494;2022-11-15T00:21:06;3.47;;;1.50;;
57615;SDS011;43816;52.054;-9.494;2022-11-15T00:21:20;3.53;;;1.70;;
57615;SDS011;43816;52.054;-9.494;2022-11-15T00:21:31;4.40;;;1.90;;
57615;SDS011;43816;52.054;-9.494;2022-11-15T00:21:41;4.53;;;1.90;;
57615;SDS011;43816;52.054;-9.494;2022-11-15T00:21:51;4.37;;;1.80;;
57615;SDS011;43816;52.054;-9.494;2022-11-15T00:22:04;3.03;;;1.60;;
57615;SDS011;43816;52.054;-9.494;2022-11-15T00:22:14;2.83;;;1.52;;
57615;SDS011;43816;52.054;-9.494;2022-11-15T00:22:24;3.30;;;1.53;;
57615;SDS011;43816;52.054;-9.494;2022-11-15T00:22:35;3.75;;;1.55;;
57615;SDS011;43816;52.054;-9.494;2022-11-15T00:22:45;4.20;;;1.70;;
57615;SDS011;43816;52.054;-9.494;2022-11-15T00:22:55;3.73;;;1.80;;
57615;SDS011;43816;52.054;-9.494;2022-11-15T00:23:06;3.60;;;1.83;;
57615;SDS011;43816;52.054;-9.494;2022-11-15T00:23:16;3.58;;;1.80;;
57615;SDS011;43816;52.054;-9.494;2022-11-15T00:23:27;3.60;;;1.70;;
57615;SDS011;43816;52.054;-9.494;2022-11-15T00:23:37;3.03;;;1.60;;
57615;SDS011;43816;52.054;-9.494;2022-11-15T00:23:47;2.95;;;1.45;;
57615;SDS011;43816;52.054;-9.494;2022-11-15T00:23:58;3.07;;;1.57;;
57615;SDS011;43816;52.054;-9.494;2022-11-15T00:24:08;3.03;;;1.60;;
57615;SDS011;43816;52.054;-9.494;2022-11-15T00:24:19;3.17;;;1.73;;
57615;SDS011;43816;52.054;-9.494;2022-11-15T00:24:29;4.00;;;1.70;;
57615;SDS011;43816;52.054;-9.494;2022-11-15T00:24:39;4.47;;;1.80;;
57615;SDS011;43816;52.054;-9.494;2022-11-15T00:24:49;4.10;;;1.70;;
57615;SDS011;43816;52.054;-9.494;2022-11-15T00:25:00;3.73;;;1.70;;
57615;SDS011;43816;52.054;-9.494;2022-11-15T00:25:10;3.80;;;1.60;;
57615;SDS011;43816;52.054;-9.494;2022-11-15T00:25:20;3.77;;;1.60;;
57615;SDS011;43816;52.054;-9.494;2022-11-15T00:25:31;3.33;;;1.50;;
57615;SDS011;43816;52.054;-9.494;2022-11-15T00:25:41;3.80;;;1.60;;
57615;SDS011;43816;52.054;-9.494;2022-11-15T00:25:55;3.73;;;1.63;;
57615;SDS011;43816;52.054;-9.494;2022-11-15T00:26:06;3.63;;;1.80;;
57615;SDS011;43816;52.054;-9.494;2022-11-15T00:26:20;3.10;;;1.73;;
57615;SDS011;43816;52.054;-9.494;2022-11-15T00:26:31;3.17;;;1.60;;
57615;SDS011;43816;52.054;-9.494;2022-11-15T00:26:41;3.83;;;1.60;;
57615;SDS011;43816;52.054;-9.494;2022-11-15T00:26:51;3.93;;;1.60;;
57615;SDS011;43816;52.054;-9.494;2022-11-15T00:27:01;3.77;;;1.67;;
57615;SDS011;43816;52.054;-9.494;2022-11-15T00:27:12;3.10;;;1.67;;
57615;SDS011;43816;52.054;-9.494;2022-11-15T00:27:22;2.83;;;1.50;;
57615;SDS011;43816;52.054;-9.494;2022-11-15T00:27:32;3.10;;;1.50;;
57615;SDS011;43816;52.054;-9.494;2022-11-15T00:27:43;2.78;;;1.33;;
57615;SDS011;43816;52.054;-9.494;2022-11-15T00:27:56;2.90;;;1.40;;
57615;SDS011;43816;52.054;-9.494;2022-11-15T00:28:07;2.88;;;1.48;;
57615;SDS011;43816;52.054;-9.494;2022-11-15T00:28:18;3.97;;;1.70;;
57615;SDS011;43816;52.054;-9.494;2022-11-15T00:28:28;3.67;;;1.70;;
57615;SDS011;43816;52.054;-9.494;2022-11-15T00:28:39;3.70;;;1.80;;
57615;SDS011;43816;52.054;-9.494;2022-11-15T00:28:51;3.38;;;1.85;;
57615;SDS011;43816;52.054;-9.494;2022-11-15T00:29:02;4.07;;;1.88;;
57615;SDS011;43816;52.054;-9.494;2022-11-15T00:29:12;4.57;;;1.83;;
57615;SDS011;43816;52.054;-9.494;2022-11-15T00:29:22;4.60;;;1.70;;
57615;SDS011;43816;52.054;-9.494;2022-11-15T00:29:33;3.93;;;1.60;;
57615;SDS011;43816;52.054;-9.494;2022-11-15T00:29:43;3.37;;;1.50;;
57615;SDS011;43816;52.054;-9.494;2022-11-15T00:29:53;3.13;;;1.60;;
57615;SDS011;43816;52.054;-9.494;2022-11-15T00:30:04;3.40;;;1.77;;
57615;SDS011;43816;52.054;-9.494;2022-11-15T00:30:14;3.42;;;1.75;;
57615;SDS011;43816;52.054;-9.494;2022-11-15T00:30:25;3.57;;;1.83;;
57615;SDS011;43816;52.054;-9.494;2022-11-15T00:30:36;3.42;;;1.70;;
57615;SDS011;43816;52.054;-9.494;2022-11-15T00:30:46;3.20;;;1.77;;
57615;SDS011;43816;52.054;-9.494;2022-11-15T00:31:00;2.65;;;1.70;;
57615;SDS011;43816;52.054;-9.494;2022-11-15T00:31:12;3.13;;;1.73;;
57615;SDS011;43816;52.054;-9.494;2022-11-15T00:31:23;3.67;;;1.80;;
57615;SDS011;43816;52.054;-9.494;2022-11-15T00:31:33;3.47;;;1.63;;
57615;SDS011;43816;52.054;-9.494;2022-11-15T00:31:43;3.27;;;1.70;;
57615;SDS011;43816;52.054;-9.494;2022-11-15T00:31:54;3.00;;;1.60;;
57615;SDS011;43816;52.054;-9.494;2022-11-15T00:32:04;3.20;;;1.70;;
57615;SDS011;43816;52.054;-9.494;2022-11-15T00:32:15;3.70;;;1.90;;
57615;SDS011;43816;52.054;-9.494;2022-11-15T00:32:25;3.13;;;1.80;;
57615;SDS011;43816;52.054;-9.494;2022-11-15T00:32:35;3.00;;;1.70;;
57615;SDS011;43816;52.054;-9.494;2022-11-15T00:32:46;2.83;;;1.43;;
57615;SDS011;43816;52.054;-9.494;2022-11-15T00:32:56;3.50;;;1.57;;
57615;SDS011;43816;52.054;-9.494;2022-11-15T00:33:06;3.43;;;1.60;;
57615;SDS011;43816;52.054;-9.494;2022-11-15T00:33:17;3.38;;;1.60;;
57615;SDS011;43816;52.054;-9.494;2022-11-15T00:33:27;2.97;;;1.57;;
57615;SDS011;43816;52.054;-9.494;2022-11-15T00:33:37;3.00;;;1.57;;
57615;SDS011;43816;52.054;-9.494;2022-11-15T00:33:48;2.73;;;1.50;;
57615;SDS011;43816;52.054;-9.494;2022-11-15T00:33:58;2.57;;;1.40;;
57615;SDS011;43816;52.054;-9.494;2022-11-15T00:34:09;2.55;;;1.48;;
57615;SDS011;43816;52.054;-9.494;2022-11-15T00:34:19;2.80;;;1.50;;
57615;SDS011;43816;52.054;-9.494;2022-11-15T00:34:30;3.07;;;1.63;;
57615;SDS011;43816;52.054;-9.494;2022-11-15T00:34:40;3.07;;;1.63;;
57615;SDS011;43816;52.054;-9.494;2022-11-15T00:34:50;3.17;;;1.60;;
57615;SDS011;43816;52.054;-9.494;2022-11-15T00:35:01;3.03;;;1.60;;
57615;SDS011;43816;52.054;-9.494;2022-11-15T00:35:11;3.87;;;1.87;;
57615;SDS011;43816;52.054;-9.494;2022-11-15T00:35:21;3.40;;;1.85;;
57615;SDS011;43816;52.054;-9.494;2022-11-15T00:35:32;3.03;;;1.80;;
57615;SDS011;43816;52.054;-9.494;2022-11-15T00:35:43;2.78;;;1.63;;
57615;SDS011;43816;52.054;-9.494;2022-11-15T00:35:58;3.50;;;1.70;;
57615;SDS011;43816;52.054;-9.494;2022-11-15T00:36:18;3.47;;;1.67;;
57615;SDS011;43816;52.054;-9.494;2022-11-15T00:36:28;3.73;;;1.93;;
57615;SDS011;43816;52.054;-9.494;2022-11-15T00:36:43;3.80;;;1.90;;
57615;SDS011;43816;52.054;-9.494;2022-11-15T00:36:53;3.22;;;1.60;;
57615;SDS011;43816;52.054;-9.494;2022-11-15T00:37:03;3.60;;;1.50;;
57615;SDS011;43816;52.054;-9.494;2022-11-15T00:37:13;4.23;;;1.80;;
57615;SDS011;43816;52.054;-9.494;2022-11-15T00:37:24;4.07;;;1.77;;
57615;SDS011;43816;52.054;-9.494;2022-11-15T00:37:34;3.75;;;1.70;;
57615;SDS011;43816;52.054;-9.494;2022-11-15T00:37:45;3.17;;;1.57;;
57615;SDS011;43816;52.054;-9.494;2022-11-15T00:37:55;3.95;;;1.60;;
57615;SDS011;43816;52.054;-9.494;2022-11-15T00:38:05;4.00;;;1.67;;
57615;SDS011;43816;52.054;-9.494;2022-11-15T00:38:16;3.87;;;1.60;;
57615;SDS011;43816;52.054;-9.494;2022-11-15T00:38:29;3.25;;;1.50;;
57615;SDS011;43816;52.054;-9.494;2022-11-15T00:38:40;3.38;;;1.50;;
57615;SDS011;43816;52.054;-9.494;2022-11-15T00:38:51;2.60;;;1.45;;
57615;SDS011;43816;52.054;-9.494;2022-11-15T00:39:03;3.03;;;1.60;;
57615;SDS011;43816;52.054;-9.494;2022-11-15T00:39:14;3.63;;;1.60;;
57615;SDS011;43816;52.054;-9.494;2022-11-15T00:39:24;3.57;;;1.67;;
57615;SDS011;43816;52.054;-9.494;2022-11-15T00:39:35;3.45;;;1.77;;
57615;SDS011;43816;52.054;-9.494;2022-11-15T00:39:45;2.93;;;1.73;;
57615;SDS011;43816;52.054;-9.494;2022-11-15T00:39:55;3.20;;;1.60;;
57615;SDS011;43816;52.054;-9.494;2022-11-15T00:40:06;2.97;;;1.40;;
57615;SDS011;43816;52.054;-9.494;2022-11-15T00:40:17;2.90;;;1.42;;
57615;SDS011;43816;52.054;-9.494;2022-11-15T00:40:27;2.67;;;1.53;;
57615;SDS011;43816;52.054;-9.494;2022-11-15T00:40:38;2.72;;;1.60;;
57615;SDS011;43816;52.054;-9.494;2022-11-15T00:40:48;2.87;;;1.60;;
57615;SDS011;43816;52.054;-9.494;2022-11-15T00:40:58;2.83;;;1.60;;
57615;SDS011;43816;52.054;-9.494;2022-11-15T00:41:09;2.75;;;1.60;;
57615;SDS011;43816;52.054;-9.494;2022-11-15T00:41:20;2.67;;;1.70;;
57615;SDS011;43816;52.054;-9.494;2022-11-15T00:41:30;3.00;;;1.53;;
57615;SDS011;43816;52.054;-9.494;2022-11-15T00:41:40;3.80;;;1.60;;
57615;SDS011;43816;52.054;-9.494;2022-11-15T00:41:50;3.85;;;1.50;;
57615;SDS011;43816;52.054;-9.494;2022-11-15T00:42:01;4.07;;;1.67;;
57615;SDS011;43816;52.054;-9.494;2022-11-15T00:42:11;3.33;;;1.60;;
57615;SDS011;43816;52.054;-9.494;2022-11-15T00:42:21;3.42;;;1.60;;
57615;SDS011;43816;52.054;-9.494;2022-11-15T00:42:31;3.13;;;1.50;;
57615;SDS011;43816;52.054;-9.494;2022-11-15T00:42:42;3.93;;;1.60;;
57615;SDS011;43816;52.054;-9.494;2022-11-15T00:42:52;3.88;;;1.50;;
57615;SDS011;43816;52.054;-9.494;2022-11-15T00:43:02;3.53;;;1.50;;
57615;SDS011;43816;52.054;-9.494;2022-11-15T00:43:12;2.90;;;1.50;;
57615;SDS011;43816;52.054;-9.494;2022-11-15T00:43:23;2.57;;;1.50;;
57615;SDS011;43816;52.054;-9.494;2022-11-15T00:43:33;2.95;;;1.55;;
57615;SDS011;43816;52.054;-9.494;2022-11-15T00:43:43;3.13;;;1.43;;
57615;SDS011;43816;52.054;-9.494;2022-11-15T00:43:54;3.00;;;1.50;;
57615;SDS011;43816;52.054;-9.494;2022-11-15T00:44:04;2.72;;;1.58;;
57615;SDS011;43816;52.054;-9.494;2022-11-15T00:44:14;2.50;;;1.53;;
57615;SDS011;43816;52.054;-9.494;2022-11-15T00:44:24;2.77;;;1.60;;
57615;SDS011;43816;52.054;-9.494;2022-11-15T00:44:35;2.47;;;1.50;;
57615;SDS011;43816;52.054;-9.494;2022-11-15T00:44:45;3.20;;;1.60;;
57615;SDS011;43816;52.054;-9.494;2022-11-15T00:44:55;3.37;;;1.70;;
57615;SDS011;43816;52.054;-9.494;2022-11-15T00:45:05;3.77;;;1.73;;
57615;SDS011;43816;52.054;-9.494;2022-11-15T00:45:19;3.67;;;1.73;;
57615;SDS011;43816;52.054;-9.494;2022-11-15T00:45:29;3.20;;;1.65;;
57615;SDS011;43816;52.054;-9.494;2022-11-15T00:45:39;3.73;;;1.70;;
57615;SDS011;43816;52.054;-9.494;2022-11-15T00:45:50;3.60;;;1.65;;
57615;SDS011;43816;52.054;-9.494;2022-11-15T00:46:00;4.30;;;1.70;;
57615;SDS011;43816;52.054;-9.494;2022-11-15T00:46:10;4.27;;;1.57;;
57615;SDS011;43816;52.054;-9.494;2022-11-15T00:46:21;3.93;;;1.57;;
57615;SDS011;43816;52.054;-9.494;2022-11-15T00:46:31;3.53;;;1.60;;
57615;SDS011;43816;52.054;-9.494;2022-11-15T00:46:41;3.77;;;1.60;;
57615;SDS011;43816;52.054;-9.494;2022-11-15T00:46:51;4.13;;;1.60;;
57615;SDS011;43816;52.054;-9.494;2022-11-15T00:47:02;4.50;;;1.70;;
57615;SDS011;43816;52.054;-9.494;2022-11-15T00:47:12;4.07;;;1.60;;
57615;SDS011;43816;52.054;-9.494;2022-11-15T00:47:22;3.80;;;1.58;;
57615;SDS011;43816;52.054;-9.494;2022-11-15T00:47:33;3.30;;;1.47;;
57615;SDS011;43816;52.054;-9.494;2022-11-15T00:47:46;3.03;;;1.53;;
57615;SDS011;43816;52.054;-9.494;2022-11-15T00:47:56;2.50;;;1.40;;
57615;SDS011;43816;52.054;-9.494;2022-11-15T00:48:07;2.70;;;1.43;;
57615;SDS011;43816;52.054;-9.494;2022-11-15T00:48:17;3.78;;;1.50;;
57615;SDS011;43816;52.054;-9.494;2022-11-15T00:48:28;3.90;;;1.50;;
57615;SDS011;43816;52.054;-9.494;2022-11-15T00:48:38;3.38;;;1.50;;
57615;SDS011;43816;52.054;-9.494;2022-11-15T00:48:49;2.50;;;1.50;;
57615;SDS011;43816;52.054;-9.494;2022-11-15T00:48:59;2.65;;;1.50;;
57615;SDS011;43816;52.054;-9.494;2022-11-15T00:49:09;2.83;;;1.50;;
57615;SDS011;43816;52.054;-9.494;2022-11-15T00:49:19;2.77;;;1.50;;
57615;SDS011;43816;52.054;-9.494;2022-11-15T00:49:30;3.87;;;1.70;;
57615;SDS011;43816;52.054;-9.494;2022-11-15T00:49:40;3.65;;;1.60;;
57615;SDS011;43816;52.054;-9.494;2022-11-15T00:49:50;4.13;;;1.80;;
57615;SDS011;43816;52.054;-9.494;2022-11-15T00:50:01;3.43;;;1.70;;
57615;SDS011;43816;52.054;-9.494;2022-11-15T00:50:11;3.42;;;1.77;;
57615;SDS011;43816;52.054;-9.494;2022-11-15T00:50:22;3.25;;;1.60;;
57615;SDS011;43816;52.054;-9.494;2022-11-15T00:50:32;3.00;;;1.53;;
57615;SDS011;43816;52.054;-9.494;2022-11-15T00:50:42;3.23;;;1.60;;
57615;SDS011;43816;52.054;-9.494;2022-11-15T00:50:53;3.33;;;1.63;;
57615;SDS011;43816;52.054;-9.494;2022-11-15T00:51:03;3.50;;;1.60;;
57615;SDS011;43816;52.054;-9.494;2022-11-15T00:51:13;3.33;;;1.60;;
57615;SDS011;43816;52.054;-9.494;2022-11-15T00:51:24;3.13;;;1.60;;
57615;SDS011;43816;52.054;-9.494;2022-11-15T00:51:34;3.43;;;1.60;;
57615;SDS011;43816;52.054;-9.494;2022-11-15T00:51:44;3.43;;;1.50;;
57615;SDS011;43816;52.054;-9.494;2022-11-15T00:51:54;3.23;;;1.40;;
57615;SDS011;43816;52.054;-9.494;2022-11-15T00:52:05;3.33;;;1.53;;
57615;SDS011;43816;52.054;-9.494;2022-11-15T00:52:15;3.73;;;1.63;;
57615;SDS011;43816;52.054;-9.494;2022-11-15T00:52:25;4.03;;;1.65;;
57615;SDS011;43816;52.054;-9.494;2022-11-15T00:52:36;3.37;;;1.47;;
57615;SDS011;43816;52.054;-9.494;2022-11-15T00:52:46;3.03;;;1.50;;
57615;SDS011;43816;52.054;-9.494;2022-11-15T00:52:56;3.10;;;1.60;;
57615;SDS011;43816;52.054;-9.494;2022-11-15T00:53:06;3.33;;;1.70;;
57615;SDS011;43816;52.054;-9.494;2022-11-15T00:53:17;3.17;;;1.67;;
57615;SDS011;43816;52.054;-9.494;2022-11-15T00:53:27;3.07;;;1.63;;
57615;SDS011;43816;52.054;-9.494;2022-11-15T00:53:38;2.78;;;1.58;;
57615;SDS011;43816;52.054;-9.494;2022-11-15T00:53:48;3.03;;;1.60;;
57615;SDS011;43816;52.054;-9.494;2022-11-15T00:53:58;3.45;;;1.70;;
57615;SDS011;43816;52.054;-9.494;2022-11-15T00:54:09;3.63;;;1.70;;
57615;SDS011;43816;52.054;-9.494;2022-11-15T00:54:19;4.37;;;1.80;;
57615;SDS011;43816;52.054;-9.494;2022-11-15T00:54:29;4.72;;;1.75;;
57615;SDS011;43816;52.054;-9.494;2022-11-15T00:54:39;4.57;;;1.60;;
57615;SDS011;43816;52.054;-9.494;2022-11-15T00:54:50;3.87;;;1.60;;
57615;SDS011;43816;52.054;-9.494;2022-11-15T00:55:00;3.15;;;1.60;;
57615;SDS011;43816;52.054;-9.494;2022-11-15T00:55:14;3.23;;;1.67;;
57615;SDS011;43816;52.054;-9.494;2022-11-15T00:55:26;3.50;;;1.80;;
57615;SDS011;43816;52.054;-9.494;2022-11-15T00:55:36;3.63;;;1.80;;
57615;SDS011;43816;52.054;-9.494;2022-11-15T00:55:47;3.10;;;1.60;;
57615;SDS011;43816;52.054;-9.494;2022-11-15T00:55:57;2.85;;;1.50;;
57615;SDS011;43816;52.054;-9.494;2022-11-15T00:56:07;2.63;;;1.60;;
57615;SDS011;43816;52.054;-9.494;2022-11-15T00:56:17;3.03;;;1.67;;
57615;SDS011;43816;52.054;-9.494;2022-11-15T00:56:28;3.20;;;1.60;;
57615;SDS011;43816;52.054;-9.494;2022-11-15T00:56:38;3.30;;;1.50;;
57615;SDS011;43816;52.054;-9.494;2022-11-15T00:56:48;2.80;;;1.40;;
57615;SDS011;43816;52.054;-9.494;2022-11-15T00:56:58;2.57;;;1.30;;
57615;SDS011;43816;52.054;-9.494;2022-11-15T00:57:09;2.70;;;1.30;;
57615;SDS011;43816;52.054;-9.494;2022-11-15T00:57:19;3.10;;;1.50;;
57615;SDS011;43816;52.054;-9.494;2022-11-15T00:57:29;3.23;;;1.50;;
57615;SDS011;43816;52.054;-9.494;2022-11-15T00:57:40;3.00;;;1.50;;
57615;SDS011;43816;52.054;-9.494;2022-11-15T00:57:50;2.50;;;1.40;;
57615;SDS011;43816;52.054;-9.494;2022-11-15T00:58:00;2.40;;;1.40;;
57615;SDS011;43816;52.054;-9.494;2022-11-15T00:58:10;3.20;;;1.50;;
57615;SDS011;43816;52.054;-9.494;2022-11-15T00:58:21;3.63;;;1.60;;
57615;SDS011;43816;52.054;-9.494;2022-11-15T00:58:31;4.37;;;1.90;;
57615;SDS011;43816;52.054;-9.494;2022-11-15T00:58:41;3.35;;;1.77;;
57615;SDS011;43816;52.054;-9.494;2022-11-15T00:58:52;2.90;;;1.70;;
57615;SDS011;43816;52.054;-9.494;2022-11-15T00:59:03;1.95;;;1.40;;
57615;SDS011;43816;52.054;-9.494;2022-11-15T00:59:13;2.30;;;1.40;;
57615;SDS011;43816;52.054;-9.494;2022-11-15T00:59:23;2.83;;;1.50;;
57615;SDS011;43816;52.054;-9.494;2022-11-15T00:59:34;3.17;;;1.60;;
57615;SDS011;43816;52.054;-9.494;2022-11-15T00:59:44;2.80;;;1.52;;
57615;SDS011;43816;52.054;-9.494;2022-11-15T00:59:54;3.07;;;1.57;;
57615;SDS011;43816;52.054;-9.494;2022-11-15T01:00:05;3.03;;;1.53;;
57615;SDS011;43816;52.054;-9.494;2022-11-15T01:00:16;3.45;;;1.50;;
57615;SDS011;43816;52.054;-9.494;2022-11-15T01:00:26;3.05;;;1.48;;
57615;SDS011;43816;52.054;-9.494;2022-11-15T01:00:37;3.20;;;1.40;;
57615;SDS011;43816;52.054;-9.494;2022-11-15T01:00:47;3.08;;;1.40;;
57615;SDS011;43816;52.054;-9.494;2022-11-15T01:01:04;3.13;;;1.50;;
57615;SDS011;43816;52.054;-9.494;2022-11-15T01:01:16;2.88;;;1.60;;
57615;SDS011;43816;52.054;-9.494;2022-11-15T01:01:26;2.53;;;1.50;;
57615;SDS011;43816;52.054;-9.494;2022-11-15T01:01:36;2.63;;;1.40;;
57615;SDS011;43816;52.054;-9.494;2022-11-15T01:01:46;2.67;;;1.33;;
57615;SDS011;43816;52.054;-9.494;2022-11-15T01:01:57;2.30;;;1.30;;
57615;SDS011;43816;52.054;-9.494;2022-11-15T01:02:07;2.30;;;1.30;;
57615;SDS011;43816;52.054;-9.494;2022-11-15T01:02:17;2.40;;;1.33;;
57615;SDS011;43816;52.054;-9.494;2022-11-15T01:02:27;2.87;;;1.43;;
57615;SDS011;43816;52.054;-9.494;2022-11-15T01:02:38;2.92;;;1.50;;
57615;SDS011;43816;52.054;-9.494;2022-11-15T01:02:48;2.80;;;1.50;;
57615;SDS011;43816;52.054;-9.494;2022-11-15T01:02:59;2.40;;;1.55;;
57615;SDS011;43816;52.054;-9.494;2022-11-15T01:03:10;2.47;;;1.50;;
57615;SDS011;43816;52.054;-9.494;2022-11-15T01:03:21;2.90;;;1.52;;
57615;SDS011;43816;52.054;-9.494;2022-11-15T01:03:32;3.17;;;1.43;;
57615;SDS011;43816;52.054;-9.494;2022-11-15T01:03:43;2.95;;;1.45;;